Aérodrome :
LOGIN :

S'inscrire | Disclaimer

   EN    FR    IT 

 










Légende :    VFR   VFR Marginal   IFR   IFR Intensif   IFR Très Intensif
Visi : 
Plafond : 
>= 8 km
>= 3000ft
5 à 8 km
1000 à 3000 ft
1500m à 5 km
500 à 1000 ft
800 à 1500m
200 à 500 ft
< 800m
< 200 ft
Symboles :   Orages  Brouillard  Fortes neiges  Fortes précipitations  Vent > 20 kt
SIGMETs :   Divers  Orages  Givrage  Turbulence  Onde Orograph.  Cendres Volcan.






- Altitude de l'aérodrome : 26 ft
- Code IATA : GLA


EGPF - Glasgow

DERNIER METAR :
  • 261350Z AUTO 24011KT 9999 -RA BKN038 OVC049 05/03 Q0999

METARs EXPIRÉS :
  • 261320Z AUTO 27015KT 9999 -RA FEW028 SCT032 BKN039 05/02 Q0999
  • 261250Z AUTO 24013KT 9999 FEW035/// SCT045/// //////TCU 07/03 Q0998
  • 261220Z AUTO 24013KT 9999 //////TCU 07/04 Q0998
  • 261150Z AUTO 23009KT 9999 FEW041 07/04 Q0998
  • 261120Z AUTO 25009KT 9999 SCT018 SCT023 BKN035 07/05 Q0998

TAF TAF EGPF
Valide du 26 à 12h jusqu'au 27 à 12h UTC


261101Z 2612/2712 26010KT 9999 FEW020 SCT030
PROB40
TEMPO 2612/2615 6000 SHRA
BECMG 2618/2621 10009KT
TEMPO 2622/2712 6000 SHRASN BKN014
BECMG 2623/2702 20012KT
PROB30
TEMPO 2701/2703 3000 RASN BKN008
TEMPO 2704/2712 20015G25KT
ATIS : +44 141 887 7449



MET'MAP, la Météo Aéronautique d'un coup d'oeil ! - Copyright ORBIFLY Décembre 2007 - Disclaimer

ORBIFLY MET'MAP TEAM :

Programmation & Développement : Alexandra Zaïnal
Sur une idée originale de : Baudouin d'Aumeries
Assistance à la programmation : Marc-Olivier Méhu
Soutien technique & logistique : Manuel Goepfert

Contact : metmap@orbifly.com




SOURCES & CREDITS :

   NOAA